createdAt,value
2018-06-24T00:01:46.290Z,91.80
2018-06-24T00:04:14.401Z,91.80
2018-06-24T00:06:42.568Z,91.90
2018-06-24T00:09:11.194Z,91.90
2018-06-24T00:11:39.581Z,91.90
2018-06-24T00:14:07.817Z,92.00
2018-06-24T00:16:36.010Z,92.10
2018-06-24T00:19:04.141Z,92.20
2018-06-24T00:21:32.348Z,92.20
2018-06-24T00:24:00.509Z,92.10
2018-06-24T00:26:28.690Z,92.10
2018-06-24T00:28:56.881Z,92.10
2018-06-24T00:31:25.278Z,92.20
2018-06-24T00:33:53.554Z,92.40
2018-06-24T00:36:21.654Z,92.40
2018-06-24T00:38:50.060Z,92.50
2018-06-24T00:41:18.245Z,92.40
2018-06-24T00:43:46.529Z,92.50
2018-06-24T00:46:14.905Z,92.60
2018-06-24T00:48:43.305Z,92.70
2018-06-24T00:51:11.482Z,92.90
2018-06-24T00:53:39.690Z,92.80
2018-06-24T00:56:07.866Z,92.80
2018-06-24T00:58:36.078Z,92.80
2018-06-24T01:01:04.236Z,92.90
2018-06-24T01:03:32.434Z,92.90
2018-06-24T01:06:00.606Z,92.90
2018-06-24T01:08:28.794Z,93.10
2018-06-24T01:10:56.981Z,93.10
2018-06-24T01:13:25.161Z,93.00
2018-06-24T01:15:53.369Z,93.00
2018-06-24T01:18:21.546Z,93.30
2018-06-24T01:20:49.777Z,93.40
2018-06-24T01:25:45.897Z,93.30
2018-06-24T01:28:14.081Z,93.50
2018-06-24T01:30:42.289Z,93.60
2018-06-24T01:33:10.454Z,93.70
2018-06-24T01:35:38.647Z,93.60
2018-06-24T01:38:06.834Z,93.70
2018-06-24T01:40:35.001Z,93.80
2018-06-24T01:43:03.174Z,93.80
2018-06-24T01:45:31.282Z,93.80
2018-06-24T01:47:59.434Z,93.80
2018-06-24T01:50:27.521Z,93.80
2018-06-24T01:52:55.615Z,93.80
2018-06-24T01:55:23.721Z,93.90
2018-06-24T01:57:51.891Z,94.00
2018-06-24T02:00:19.979Z,94.10
2018-06-24T02:02:48.160Z,94.10
2018-06-24T02:05:16.294Z,94.20
2018-06-24T02:07:44.418Z,94.30
2018-06-24T02:10:12.535Z,94.20
2018-06-24T02:12:40.698Z,94.30
2018-06-24T02:15:08.794Z,94.50
2018-06-24T02:17:36.971Z,94.60
2018-06-24T02:20:05.145Z,94.70
2018-06-24T02:22:33.246Z,94.80
2018-06-24T02:25:01.327Z,94.90
2018-06-24T02:27:29.419Z,94.80
2018-06-24T02:29:58.509Z,95.00
2018-06-24T02:32:26.746Z,95.00
2018-06-24T02:34:54.913Z,95.00
2018-06-24T02:37:23.082Z,95.10
2018-06-24T02:39:52.314Z,95.20
2018-06-24T02:42:20.473Z,95.20
2018-06-24T02:44:48.562Z,95.10
2018-06-24T02:47:16.670Z,95.00
2018-06-24T02:49:44.835Z,95.10
2018-06-24T02:52:12.917Z,95.20
2018-06-24T02:54:40.993Z,95.30
2018-06-24T02:59:37.060Z,95.30
2018-06-24T03:02:05.150Z,95.20
2018-06-24T03:04:33.247Z,95.10
2018-06-24T03:07:01.425Z,95.10
2018-06-24T03:09:29.505Z,95.00
2018-06-24T03:11:57.590Z,95.20
2018-06-24T03:16:53.659Z,95.30
2018-06-24T03:19:21.742Z,95.20
2018-06-24T03:21:49.838Z,95.10
2018-06-24T03:24:18.005Z,95.10
2018-06-24T03:26:46.126Z,95.40
2018-06-24T03:29:14.277Z,95.40
2018-06-24T03:31:42.369Z,95.30
2018-06-24T03:34:10.546Z,95.20
2018-06-24T03:39:08.621Z,95.70
2018-06-24T03:41:36.761Z,95.30
2018-06-24T03:44:04.938Z,95.30
2018-06-24T03:49:01.038Z,95.20
2018-06-24T03:51:29.186Z,95.20
2018-06-24T03:56:25.289Z,95.20
2018-06-24T03:58:53.454Z,95.50
2018-06-24T04:01:21.521Z,95.80
2018-06-24T04:03:49.622Z,95.50
2018-06-24T04:06:17.698Z,95.60
2018-06-24T04:08:45.808Z,95.40
2018-06-24T04:11:13.961Z,95.50
2018-06-24T04:13:42.062Z,95.50
2018-06-24T04:16:10.130Z,95.60
2018-06-24T04:18:41.333Z,95.60
2018-06-24T04:21:10.537Z,95.60
2018-06-24T04:23:38.736Z,95.50
2018-06-24T04:26:07.535Z,95.60
2018-06-24T04:28:35.694Z,95.60
2018-06-24T04:31:03.998Z,95.70
2018-06-24T04:33:32.606Z,95.50
2018-06-24T04:36:00.750Z,95.50
2018-06-24T04:38:28.858Z,95.50
2018-06-24T04:40:57.034Z,95.50
2018-06-24T04:43:25.140Z,95.50
2018-06-24T04:45:53.314Z,95.60
2018-06-24T04:48:21.490Z,95.50
2018-06-24T04:50:49.606Z,95.50
2018-06-24T04:53:17.692Z,95.40
2018-06-24T04:55:45.845Z,95.30
2018-06-24T04:58:13.938Z,95.20
2018-06-24T05:00:42.130Z,95.00
2018-06-24T05:03:10.310Z,95.10
2018-06-24T05:05:38.512Z,94.90
2018-06-24T05:08:06.682Z,94.90
2018-06-24T05:10:34.870Z,94.60
2018-06-24T05:13:03.050Z,94.30
2018-06-24T05:15:31.146Z,94.30
2018-06-24T05:17:59.325Z,94.30
2018-06-24T05:20:27.513Z,94.30
2018-06-24T05:22:55.586Z,94.20
2018-06-24T05:25:23.690Z,94.10
2018-06-24T05:27:51.894Z,93.70
2018-06-24T05:30:20.064Z,93.60
2018-06-24T05:32:48.254Z,93.70
2018-06-24T05:35:16.437Z,94.00
2018-06-24T05:37:44.656Z,94.00
2018-06-24T05:40:12.685Z,94.10
2018-06-24T05:42:40.794Z,93.60
2018-06-24T05:45:08.973Z,93.60
2018-06-24T05:47:37.144Z,93.80
2018-06-24T05:50:05.284Z,93.90
2018-06-24T05:52:33.326Z,94.10
2018-06-24T05:57:29.501Z,93.40
2018-06-24T05:59:58.593Z,93.20
2018-06-24T06:02:26.687Z,93.20
2018-06-24T06:04:54.753Z,93.60
2018-06-24T06:07:22.858Z,93.40
2018-06-24T06:09:51.953Z,93.20
2018-06-24T06:12:20.050Z,92.70
2018-06-24T06:14:48.122Z,92.40
2018-06-24T06:19:44.189Z,92.30
2018-06-24T06:22:12.286Z,92.50
2018-06-24T06:24:40.365Z,92.80
2018-06-24T06:27:08.454Z,92.40
2018-06-24T06:29:36.674Z,92.70
2018-06-24T06:32:04.830Z,92.10
2018-06-24T06:34:32.901Z,91.90
2018-06-24T06:37:01.038Z,91.70
2018-06-24T06:39:29.177Z,92.00
2018-06-24T06:44:25.257Z,91.10
2018-06-24T06:46:53.426Z,90.90
2018-06-24T06:51:49.507Z,91.50
2018-06-24T06:54:17.686Z,90.90
2018-06-24T06:56:45.766Z,91.20
2018-06-24T06:59:13.999Z,90.40
2018-06-24T07:01:42.278Z,90.20
2018-06-24T07:04:10.435Z,90.50
2018-06-24T07:06:38.524Z,90.70
2018-06-24T07:09:08.277Z,90.40
2018-06-24T07:11:36.462Z,89.00
2018-06-24T07:14:04.698Z,88.50
2018-06-24T07:16:32.805Z,88.60
2018-06-24T07:19:00.889Z,88.30
2018-06-24T07:21:29.066Z,89.30
2018-06-24T07:23:57.174Z,89.50
2018-06-24T07:26:25.338Z,88.40
2018-06-24T07:28:53.421Z,88.30
2018-06-24T07:31:21.502Z,88.80
2018-06-24T07:33:49.779Z,88.90
2018-06-24T07:36:17.686Z,87.90
2018-06-24T07:38:45.881Z,87.80
2018-06-24T07:41:14.054Z,87.80
2018-06-24T07:43:42.153Z,88.80
2018-06-24T07:46:10.346Z,87.50
2018-06-24T07:48:38.658Z,86.70
2018-06-24T07:51:06.831Z,86.50
2018-06-24T07:53:35.019Z,86.20
2018-06-24T07:56:03.184Z,87.30
2018-06-24T07:58:31.373Z,88.30
2018-06-24T08:00:59.553Z,87.30
2018-06-24T08:03:27.743Z,87.00
2018-06-24T08:05:55.933Z,86.20
2018-06-24T08:08:24.122Z,86.80
2018-06-24T08:10:52.325Z,85.80
2018-06-24T08:13:20.490Z,86.00
2018-06-24T08:15:48.710Z,86.20
2018-06-24T08:18:16.857Z,85.00
2018-06-24T08:20:44.982Z,86.10
2018-06-24T08:23:13.130Z,86.20
2018-06-24T08:25:41.262Z,85.60
2018-06-24T08:28:09.410Z,85.40
2018-06-24T08:30:37.714Z,86.70
2018-06-24T08:33:06.106Z,87.10
2018-06-24T08:35:34.301Z,85.80
2018-06-24T08:38:02.791Z,85.20
2018-06-24T08:40:30.949Z,84.40
2018-06-24T08:42:59.025Z,85.30
2018-06-24T08:45:27.094Z,84.70
2018-06-24T08:47:55.218Z,85.50
2018-06-24T08:50:23.382Z,84.30
2018-06-24T08:52:51.486Z,83.90
2018-06-24T08:55:19.657Z,84.70
2018-06-24T08:57:47.759Z,85.00
2018-06-24T09:00:15.926Z,84.90
2018-06-24T09:02:44.009Z,83.80
2018-06-24T09:05:12.108Z,83.70
2018-06-24T09:07:40.287Z,81.30
2018-06-24T09:10:08.398Z,82.40
2018-06-24T09:12:36.546Z,84.90
2018-06-24T09:15:04.823Z,85.20
2018-06-24T09:17:32.957Z,82.70
2018-06-24T09:20:01.109Z,83.50
2018-06-24T09:22:29.202Z,83.00
2018-06-24T09:24:57.274Z,79.70
2018-06-24T09:27:25.390Z,79.60
2018-06-24T09:29:54.473Z,81.10
2018-06-24T09:34:50.565Z,79.70
2018-06-24T09:37:18.734Z,83.40
2018-06-24T09:39:46.910Z,79.60
2018-06-24T09:42:15.006Z,81.40
2018-06-24T09:44:43.086Z,81.60
2018-06-24T09:47:11.185Z,82.00
2018-06-24T09:49:39.353Z,82.30
2018-06-24T09:52:07.422Z,83.10
2018-06-24T09:57:03.647Z,80.40
2018-06-24T09:59:31.965Z,81.80
2018-06-24T10:02:00.104Z,81.70
2018-06-24T10:04:29.289Z,80.10
2018-06-24T10:06:57.398Z,80.80
2018-06-24T10:09:25.578Z,84.10
2018-06-24T10:11:53.762Z,81.30
2018-06-24T10:14:21.846Z,81.50
2018-06-24T10:16:50.076Z,83.70
2018-06-24T10:19:18.210Z,80.80
2018-06-24T10:21:46.353Z,79.60
2018-06-24T10:24:14.517Z,79.00
2018-06-24T10:26:42.693Z,79.50
2018-06-24T10:29:10.862Z,78.80
2018-06-24T10:31:38.943Z,77.60
2018-06-24T10:34:07.033Z,77.60
2018-06-24T10:36:35.114Z,77.00
2018-06-24T10:39:04.231Z,78.80
2018-06-24T10:41:32.404Z,79.40
2018-06-24T10:44:00.499Z,76.30
2018-06-24T10:46:28.583Z,75.60
2018-06-24T10:48:56.774Z,75.20
2018-06-24T10:51:24.977Z,75.10
2018-06-24T10:53:53.136Z,75.90
2018-06-24T10:56:21.312Z,76.80
2018-06-24T10:58:49.421Z,76.60
2018-06-24T11:01:17.599Z,78.00
2018-06-24T11:03:45.682Z,77.10
2018-06-24T11:06:13.757Z,76.20
2018-06-24T11:08:41.895Z,76.40
2018-06-24T11:11:10.031Z,78.20
2018-06-24T11:13:38.135Z,78.60
2018-06-24T11:16:06.321Z,77.60
2018-06-24T11:18:34.394Z,76.70
2018-06-24T11:21:02.575Z,76.20
2018-06-24T11:23:30.650Z,75.60
2018-06-24T11:25:58.885Z,75.20
2018-06-24T11:28:27.021Z,76.30
2018-06-24T11:30:55.179Z,75.70
2018-06-24T11:33:23.293Z,76.40
2018-06-24T11:35:51.406Z,79.20
2018-06-24T11:38:19.582Z,75.30
2018-06-24T11:40:47.807Z,74.60
2018-06-24T11:43:15.963Z,77.10
2018-06-24T11:45:44.173Z,74.20
2018-06-24T11:48:12.358Z,73.90
2018-06-24T11:50:40.530Z,72.50
2018-06-24T11:53:08.734Z,72.70
2018-06-24T11:55:36.908Z,72.50
2018-06-24T11:58:05.402Z,73.10
2018-06-24T12:00:33.579Z,71.90
2018-06-24T12:03:02.094Z,78.40
2018-06-24T12:05:30.285Z,70.50
2018-06-24T12:07:58.445Z,71.00
2018-06-24T12:10:26.654Z,71.70
2018-06-24T12:12:55.739Z,62.80
2018-06-24T12:15:23.942Z,60.80
2018-06-24T12:17:52.117Z,64.30
2018-06-24T12:20:20.309Z,60.90
2018-06-24T12:22:48.494Z,59.50
2018-06-24T12:25:16.665Z,59.30
2018-06-24T12:27:44.810Z,62.80
2018-06-24T12:30:12.967Z,61.40
2018-06-24T12:32:41.138Z,64.20
2018-06-24T12:35:09.309Z,65.90
2018-06-24T12:37:37.394Z,67.00
2018-06-24T12:40:05.474Z,65.30
2018-06-24T12:45:01.647Z,64.00
2018-06-24T12:47:30.075Z,62.60
2018-06-24T12:49:58.237Z,64.20
2018-06-24T12:52:26.422Z,66.40
2018-06-24T12:54:54.618Z,64.40
2018-06-24T12:57:22.779Z,64.30
2018-06-24T12:59:51.063Z,63.80
2018-06-24T13:02:18.957Z,63.80
2018-06-24T13:04:47.029Z,64.20
2018-06-24T13:07:15.153Z,61.60
2018-06-24T13:09:43.313Z,63.50
2018-06-24T13:12:11.402Z,62.80
2018-06-24T13:14:39.574Z,66.60
2018-06-24T13:17:07.869Z,63.30
2018-06-24T13:19:35.950Z,67.60
2018-06-24T13:22:04.033Z,64.00
2018-06-24T13:24:32.126Z,63.70
2018-06-24T13:27:00.215Z,63.00
2018-06-24T13:29:28.385Z,61.20
2018-06-24T13:31:56.506Z,65.50
2018-06-24T13:34:24.670Z,64.20
2018-06-24T13:36:52.742Z,59.40
2018-06-24T13:39:20.837Z,59.70
2018-06-24T13:41:49.033Z,61.70
2018-06-24T13:44:17.129Z,59.80
2018-06-24T13:46:45.203Z,58.20
2018-06-24T13:49:13.395Z,57.10
2018-06-24T13:51:41.566Z,56.00
2018-06-24T13:54:09.990Z,55.00
2018-06-24T13:56:38.145Z,52.90
2018-06-24T13:59:06.347Z,52.80
2018-06-24T14:01:34.517Z,51.90
2018-06-24T14:04:02.663Z,52.30
2018-06-24T14:06:30.802Z,52.50
2018-06-24T14:08:58.997Z,53.70
2018-06-24T14:11:27.166Z,54.70
2018-06-24T14:13:55.360Z,56.30
2018-06-24T14:16:23.533Z,54.90
2018-06-24T14:18:51.667Z,58.60
2018-06-24T14:21:19.929Z,54.70
2018-06-24T14:23:48.117Z,54.10
2018-06-24T14:26:16.290Z,52.50
2018-06-24T14:28:44.406Z,52.00
2018-06-24T14:31:12.577Z,53.40
2018-06-24T14:33:40.814Z,51.20
2018-06-24T14:36:08.941Z,53.20
2018-06-24T14:38:37.119Z,53.60
2018-06-24T14:41:07.266Z,52.50
2018-06-24T14:43:35.434Z,52.70
2018-06-24T14:46:03.870Z,51.70
2018-06-24T14:48:32.022Z,52.60
2018-06-24T14:51:00.342Z,53.30
2018-06-24T14:53:28.734Z,55.90
2018-06-24T14:55:56.902Z,55.00
2018-06-24T14:58:25.074Z,55.90
2018-06-24T15:00:53.270Z,56.20
2018-06-24T15:03:21.437Z,56.30
2018-06-24T15:05:49.538Z,53.40
2018-06-24T15:08:17.706Z,55.60
2018-06-24T15:10:45.818Z,56.80
2018-06-24T15:13:13.990Z,55.60
2018-06-24T15:15:42.186Z,53.50
2018-06-24T15:18:10.406Z,53.40
2018-06-24T15:20:38.549Z,54.00
2018-06-24T15:23:06.958Z,55.80
2018-06-24T15:25:35.122Z,56.70
2018-06-24T15:28:03.238Z,56.50
2018-06-24T15:30:31.326Z,58.70
2018-06-24T15:32:59.485Z,57.80
2018-06-24T15:35:27.798Z,58.40
2018-06-24T15:37:56.192Z,56.20
2018-06-24T15:40:24.381Z,59.10
2018-06-24T15:42:52.541Z,57.30
2018-06-24T15:45:20.722Z,58.40
2018-06-24T15:47:48.914Z,59.70
2018-06-24T15:50:17.091Z,59.40
2018-06-24T15:52:45.189Z,57.70
2018-06-24T15:55:13.370Z,57.50
2018-06-24T15:57:41.557Z,58.10
2018-06-24T16:00:09.750Z,57.30
2018-06-24T16:02:37.942Z,57.10
2018-06-24T16:05:06.158Z,57.50
2018-06-24T16:07:34.279Z,56.10
2018-06-24T16:12:30.413Z,58.30
2018-06-24T16:14:58.570Z,58.00
2018-06-24T16:17:26.757Z,58.30
2018-06-24T16:19:54.939Z,59.90
2018-06-24T16:22:23.149Z,59.30
2018-06-24T16:24:51.314Z,61.10
2018-06-24T16:27:19.493Z,61.80
2018-06-24T16:29:47.683Z,61.90
2018-06-24T16:32:15.938Z,62.40
2018-06-24T16:34:44.050Z,62.50
2018-06-24T16:37:12.249Z,63.80
2018-06-24T16:39:40.418Z,63.90
2018-06-24T16:42:08.617Z,64.10
2018-06-24T16:47:04.862Z,64.50
2018-06-24T16:52:01.178Z,65.00
2018-06-24T16:54:29.329Z,65.10
2018-06-24T16:56:57.405Z,66.10
2018-06-24T16:59:25.896Z,67.40
2018-06-24T17:01:53.574Z,67.30
2018-06-24T17:04:21.670Z,67.30
2018-06-24T17:06:49.730Z,66.20
2018-06-24T17:09:17.846Z,67.30
2018-06-24T17:11:46.023Z,67.50
2018-06-24T17:14:14.119Z,66.30
2018-06-24T17:16:42.294Z,67.00
2018-06-24T17:19:10.402Z,66.70
2018-06-24T17:21:38.562Z,66.70
2018-06-24T17:26:34.725Z,70.00
2018-06-24T17:29:02.835Z,68.60
2018-06-24T17:31:31.009Z,70.20
2018-06-24T17:33:59.118Z,72.40
2018-06-24T17:36:27.270Z,69.50
2018-06-24T17:41:23.370Z,71.50
2018-06-24T17:43:51.529Z,76.50
2018-06-24T17:46:19.609Z,77.70
2018-06-24T17:51:15.725Z,79.40
2018-06-24T17:53:43.862Z,78.40
2018-06-24T17:56:11.949Z,76.00
2018-06-24T17:58:40.030Z,74.20
2018-06-24T18:03:36.733Z,77.80
2018-06-24T18:06:05.050Z,78.80
2018-06-24T18:08:33.190Z,76.50
2018-06-24T18:11:01.313Z,76.50
2018-06-24T18:13:29.510Z,77.70
2018-06-24T18:15:57.645Z,77.20
2018-06-24T18:20:53.718Z,74.80
2018-06-24T18:23:21.793Z,75.10
2018-06-24T18:25:49.930Z,75.60
2018-06-24T18:28:18.073Z,75.70
2018-06-24T18:30:46.177Z,76.00
2018-06-24T18:33:14.425Z,75.90
2018-06-24T18:35:42.450Z,76.60
2018-06-24T18:38:10.614Z,74.80
2018-06-24T18:40:38.694Z,73.70
2018-06-24T18:43:06.805Z,74.30
2018-06-24T18:45:34.991Z,75.10
2018-06-24T18:48:03.158Z,72.80
2018-06-24T18:50:31.381Z,72.60
2018-06-24T18:52:59.538Z,74.20
2018-06-24T18:55:27.613Z,75.10
2018-06-24T18:57:55.705Z,73.60
2018-06-24T19:00:23.881Z,76.00
2018-06-24T19:02:52.201Z,74.30
2018-06-24T19:05:20.208Z,74.00
2018-06-24T19:07:48.356Z,74.90
2018-06-24T19:10:16.526Z,74.80
2018-06-24T19:12:44.621Z,73.80
2018-06-24T19:15:12.705Z,74.80
2018-06-24T19:17:40.904Z,74.30
2018-06-24T19:20:09.011Z,75.80
2018-06-24T19:22:37.185Z,75.20
2018-06-24T19:25:05.345Z,74.60
2018-06-24T19:27:33.422Z,76.30
2018-06-24T19:30:01.522Z,76.60
2018-06-24T19:32:29.690Z,75.70
2018-06-24T19:37:25.761Z,76.90
2018-06-24T19:39:53.871Z,76.80
2018-06-24T19:42:22.054Z,77.50
2018-06-24T19:44:50.266Z,76.90
2018-06-24T19:47:18.418Z,76.60
2018-06-24T19:49:46.506Z,76.30
2018-06-24T19:52:14.678Z,76.30
2018-06-24T19:54:42.795Z,76.50
2018-06-24T19:57:10.982Z,76.60
2018-06-24T19:59:39.146Z,78.10
2018-06-24T20:02:07.347Z,77.70
2018-06-24T20:04:35.510Z,77.00
2018-06-24T20:09:31.633Z,77.60
2018-06-24T20:11:59.766Z,77.70
2018-06-24T20:14:27.857Z,77.90
2018-06-24T20:16:55.926Z,78.10
2018-06-24T20:19:24.046Z,77.40
2018-06-24T20:21:52.272Z,77.70
2018-06-24T20:24:20.393Z,78.20
2018-06-24T20:26:48.492Z,77.60
2018-06-24T20:29:16.678Z,78.00
2018-06-24T20:31:44.862Z,78.90
2018-06-24T20:34:13.070Z,78.80
2018-06-24T20:36:41.243Z,78.30
2018-06-24T20:39:09.780Z,78.70
2018-06-24T20:41:38.066Z,78.60
2018-06-24T20:44:06.251Z,78.70
2018-06-24T20:46:34.402Z,79.50
2018-06-24T20:49:02.617Z,80.30
2018-06-24T20:51:31.818Z,79.70
2018-06-24T20:54:00.205Z,80.40
2018-06-24T20:56:28.361Z,80.00
2018-06-24T20:58:56.681Z,79.80
2018-06-24T21:01:24.842Z,81.70
2018-06-24T21:03:53.060Z,80.40
2018-06-24T21:06:21.121Z,79.90
2018-06-24T21:08:49.298Z,80.30
2018-06-24T21:11:17.402Z,81.70
2018-06-24T21:13:45.577Z,82.10
2018-06-24T21:16:13.766Z,80.80
2018-06-24T21:18:42.070Z,81.80
2018-06-24T21:21:10.479Z,81.50
2018-06-24T21:23:38.626Z,80.60
2018-06-24T21:26:06.734Z,80.10
2018-06-24T21:28:34.894Z,80.40
2018-06-24T21:31:03.002Z,80.40
2018-06-24T21:33:31.165Z,80.30
2018-06-24T21:35:59.254Z,80.40
2018-06-24T21:38:27.506Z,80.80
2018-06-24T21:40:55.630Z,82.50
2018-06-24T21:43:23.870Z,81.80
2018-06-24T21:45:52.013Z,82.00
2018-06-24T21:48:20.195Z,82.30
2018-06-24T21:50:48.386Z,82.00
2018-06-24T21:53:16.597Z,81.90
2018-06-24T21:55:44.749Z,82.00
2018-06-24T21:58:12.845Z,82.20
2018-06-24T22:00:41.030Z,82.80
2018-06-24T22:03:09.222Z,82.90
2018-06-24T22:05:37.530Z,83.00
2018-06-24T22:08:05.914Z,83.00
2018-06-24T22:10:34.117Z,83.60
2018-06-24T22:13:02.270Z,84.30
2018-06-24T22:15:30.450Z,84.70
2018-06-24T22:17:58.529Z,83.90
2018-06-24T22:20:26.618Z,84.20
2018-06-24T22:22:54.802Z,84.00
2018-06-24T22:25:22.899Z,84.20
2018-06-24T22:27:51.068Z,84.40
2018-06-24T22:30:19.150Z,84.60
2018-06-24T22:32:47.254Z,85.00
2018-06-24T22:35:15.439Z,85.10
2018-06-24T22:37:43.608Z,85.70
2018-06-24T22:40:11.702Z,84.60
2018-06-24T22:42:39.769Z,85.40
2018-06-24T22:45:08.902Z,85.40
2018-06-24T22:47:37.069Z,85.90
2018-06-24T22:50:05.166Z,85.80
2018-06-24T22:52:33.342Z,86.10
2018-06-24T22:55:01.426Z,86.00
2018-06-24T22:57:29.520Z,85.90
2018-06-24T23:00:11.978Z,85.30
2018-06-24T23:02:41.182Z,85.30
2018-06-24T23:05:09.932Z,84.90
2018-06-24T23:07:38.586Z,85.90
2018-06-24T23:10:06.741Z,87.00
2018-06-24T23:12:34.837Z,85.90
2018-06-24T23:15:02.993Z,85.70
2018-06-24T23:17:31.090Z,86.10
2018-06-24T23:20:00.198Z,86.00
2018-06-24T23:22:28.281Z,86.00
2018-06-24T23:24:56.358Z,85.80
2018-06-24T23:27:24.463Z,86.40
2018-06-24T23:29:53.562Z,86.90
2018-06-24T23:32:21.674Z,86.40
2018-06-24T23:34:49.840Z,86.30
2018-06-24T23:37:17.921Z,87.20
2018-06-24T23:39:46.106Z,87.10
2018-06-24T23:42:14.200Z,87.60
2018-06-24T23:44:42.377Z,87.20
2018-06-24T23:47:10.462Z,87.20
2018-06-24T23:49:38.545Z,88.20
2018-06-24T23:52:06.666Z,87.60
2018-06-24T23:54:34.819Z,87.80
2018-06-24T23:57:02.902Z,88.30
2018-06-24T23:59:31.089Z,88.50
